sensor_id;sensor_type;location;lat;lon;timestamp;P1;durP1;ratioP1;P2;durP2;ratioP2
27422;SDS011;14878;50.778;0.258;2022-09-03T00:00:11;18.02;;;15.82;;
27422;SDS011;14878;50.778;0.258;2022-09-03T00:01:18;21.45;;;17.45;;
27422;SDS011;14878;50.778;0.258;2022-09-03T00:03:54;21.20;;;17.08;;
27422;SDS011;14878;50.778;0.258;2022-09-03T00:05:04;20.13;;;15.75;;
27422;SDS011;14878;50.778;0.258;2022-09-03T00:07:14;18.17;;;15.30;;
27422;SDS011;14878;50.778;0.258;2022-09-03T00:08:32;21.33;;;18.10;;
27422;SDS011;14878;50.778;0.258;2022-09-03T00:09:46;21.25;;;17.38;;
27422;SDS011;14878;50.778;0.258;2022-09-03T00:10:56;19.60;;;17.50;;
27422;SDS011;14878;50.778;0.258;2022-09-03T00:12:17;21.75;;;16.38;;
27422;SDS011;14878;50.778;0.258;2022-09-03T00:14:56;22.73;;;17.97;;
27422;SDS011;14878;50.778;0.258;2022-09-03T00:16:05;21.92;;;18.17;;
27422;SDS011;14878;50.778;0.258;2022-09-03T00:17:14;21.48;;;18.00;;
27422;SDS011;14878;50.778;0.258;2022-09-03T00:18:19;23.42;;;19.05;;
27422;SDS011;14878;50.778;0.258;2022-09-03T00:19:27;22.67;;;17.75;;
27422;SDS011;14878;50.778;0.258;2022-09-03T00:20:38;25.25;;;19.75;;
27422;SDS011;14878;50.778;0.258;2022-09-03T00:21:46;25.25;;;20.02;;
27422;SDS011;14878;50.778;0.258;2022-09-03T00:22:52;24.25;;;18.58;;
27422;SDS011;14878;50.778;0.258;2022-09-03T00:23:54;23.73;;;20.53;;
27422;SDS011;14878;50.778;0.258;2022-09-03T00:24:57;23.02;;;18.95;;
27422;SDS011;14878;50.778;0.258;2022-09-03T00:26:24;25.73;;;18.80;;
27422;SDS011;14878;50.778;0.258;2022-09-03T00:27:28;23.10;;;17.85;;
27422;SDS011;14878;50.778;0.258;2022-09-03T00:28:34;21.85;;;18.52;;
27422;SDS011;14878;50.778;0.258;2022-09-03T00:29:44;22.60;;;18.33;;
27422;SDS011;14878;50.778;0.258;2022-09-03T00:30:50;19.98;;;16.90;;
27422;SDS011;14878;50.778;0.258;2022-09-03T00:32:01;23.30;;;18.80;;
27422;SDS011;14878;50.778;0.258;2022-09-03T00:33:07;23.30;;;19.77;;
27422;SDS011;14878;50.778;0.258;2022-09-03T00:34:31;25.55;;;20.58;;
27422;SDS011;14878;50.778;0.258;2022-09-03T00:35:49;25.13;;;21.10;;
27422;SDS011;14878;50.778;0.258;2022-09-03T00:37:02;27.27;;;21.67;;
27422;SDS011;14878;50.778;0.258;2022-09-03T00:38:04;23.52;;;18.75;;
27422;SDS011;14878;50.778;0.258;2022-09-03T00:39:05;18.27;;;15.63;;
27422;SDS011;14878;50.778;0.258;2022-09-03T00:40:07;18.77;;;16.75;;
27422;SDS011;14878;50.778;0.258;2022-09-03T00:45:16;15.88;;;12.77;;
27422;SDS011;14878;50.778;0.258;2022-09-03T00:47:47;15.83;;;12.60;;
27422;SDS011;14878;50.778;0.258;2022-09-03T00:51:49;14.02;;;11.70;;
27422;SDS011;14878;50.778;0.258;2022-09-03T00:56:25;12.65;;;10.85;;
27422;SDS011;14878;50.778;0.258;2022-09-03T01:00:07;13.60;;;11.60;;
27422;SDS011;14878;50.778;0.258;2022-09-03T01:01:26;13.60;;;11.75;;
27422;SDS011;14878;50.778;0.258;2022-09-03T01:03:03;14.32;;;11.20;;
27422;SDS011;14878;50.778;0.258;2022-09-03T01:06:59;12.05;;;10.75;;
27422;SDS011;14878;50.778;0.258;2022-09-03T01:11:20;14.30;;;11.18;;
27422;SDS011;14878;50.778;0.258;2022-09-03T01:15:08;17.33;;;13.75;;
27422;SDS011;14878;50.778;0.258;2022-09-03T01:18:00;17.70;;;12.70;;
27422;SDS011;14878;50.778;0.258;2022-09-03T01:19:26;15.45;;;12.18;;
27422;SDS011;14878;50.778;0.258;2022-09-03T01:22:46;19.42;;;15.07;;
27422;SDS011;14878;50.778;0.258;2022-09-03T01:25:30;23.83;;;21.15;;
27422;SDS011;14878;50.778;0.258;2022-09-03T01:27:35;23.95;;;19.95;;
27422;SDS011;14878;50.778;0.258;2022-09-03T01:29:16;26.45;;;21.60;;
27422;SDS011;14878;50.778;0.258;2022-09-03T01:30:25;26.45;;;22.42;;
27422;SDS011;14878;50.778;0.258;2022-09-03T01:31:42;24.60;;;19.85;;
27422;SDS011;14878;50.778;0.258;2022-09-03T01:33:12;22.30;;;19.15;;
27422;SDS011;14878;50.778;0.258;2022-09-03T01:34:28;25.95;;;19.58;;
27422;SDS011;14878;50.778;0.258;2022-09-03T01:36:10;29.57;;;20.77;;
27422;SDS011;14878;50.778;0.258;2022-09-03T01:38:54;24.48;;;19.33;;
27422;SDS011;14878;50.778;0.258;2022-09-03T01:46:09;21.30;;;18.33;;
27422;SDS011;14878;50.778;0.258;2022-09-03T01:48:42;24.50;;;20.20;;
27422;SDS011;14878;50.778;0.258;2022-09-03T01:49:54;21.85;;;18.80;;
27422;SDS011;14878;50.778;0.258;2022-09-03T01:52:13;23.38;;;18.70;;
27422;SDS011;14878;50.778;0.258;2022-09-03T01:57:46;20.80;;;18.50;;
27422;SDS011;14878;50.778;0.258;2022-09-03T01:59:02;22.48;;;18.33;;
27422;SDS011;14878;50.778;0.258;2022-09-03T02:01:14;21.27;;;17.33;;
27422;SDS011;14878;50.778;0.258;2022-09-03T02:02:29;23.60;;;19.10;;
27422;SDS011;14878;50.778;0.258;2022-09-03T02:03:37;20.05;;;17.55;;
27422;SDS011;14878;50.778;0.258;2022-09-03T02:04:39;20.70;;;17.08;;
27422;SDS011;14878;50.778;0.258;2022-09-03T02:05:40;24.50;;;18.73;;
27422;SDS011;14878;50.778;0.258;2022-09-03T02:06:43;20.48;;;17.13;;
27422;SDS011;14878;50.778;0.258;2022-09-03T02:07:49;20.70;;;17.48;;
27422;SDS011;14878;50.778;0.258;2022-09-03T02:08:56;22.30;;;17.23;;
27422;SDS011;14878;50.778;0.258;2022-09-03T02:09:57;20.63;;;17.75;;
27422;SDS011;14878;50.778;0.258;2022-09-03T02:11:00;21.80;;;17.45;;
27422;SDS011;14878;50.778;0.258;2022-09-03T02:12:07;21.80;;;18.27;;
27422;SDS011;14878;50.778;0.258;2022-09-03T02:13:17;21.60;;;18.23;;
27422;SDS011;14878;50.778;0.258;2022-09-03T02:14:26;20.92;;;17.15;;
27422;SDS011;14878;50.778;0.258;2022-09-03T02:15:29;21.00;;;17.45;;
27422;SDS011;14878;50.778;0.258;2022-09-03T02:16:32;22.15;;;17.85;;
27422;SDS011;14878;50.778;0.258;2022-09-03T02:17:34;22.45;;;17.40;;
27422;SDS011;14878;50.778;0.258;2022-09-03T02:18:36;24.95;;;18.20;;
27422;SDS011;14878;50.778;0.258;2022-09-03T02:19:53;22.45;;;18.48;;
27422;SDS011;14878;50.778;0.258;2022-09-03T02:20:54;22.30;;;18.47;;
27422;SDS011;14878;50.778;0.258;2022-09-03T02:21:56;24.38;;;18.90;;
27422;SDS011;14878;50.778;0.258;2022-09-03T02:22:57;23.25;;;19.73;;
27422;SDS011;14878;50.778;0.258;2022-09-03T02:23:58;22.08;;;19.13;;
27422;SDS011;14878;50.778;0.258;2022-09-03T02:25:00;24.48;;;19.95;;
27422;SDS011;14878;50.778;0.258;2022-09-03T02:26:01;24.63;;;20.17;;
27422;SDS011;14878;50.778;0.258;2022-09-03T02:27:02;23.55;;;19.70;;
27422;SDS011;14878;50.778;0.258;2022-09-03T02:28:04;24.58;;;20.08;;
27422;SDS011;14878;50.778;0.258;2022-09-03T02:29:06;23.90;;;19.80;;
27422;SDS011;14878;50.778;0.258;2022-09-03T02:30:07;25.50;;;21.02;;
27422;SDS011;14878;50.778;0.258;2022-09-03T02:31:08;22.17;;;18.83;;
27422;SDS011;14878;50.778;0.258;2022-09-03T02:32:09;25.10;;;19.88;;
27422;SDS011;14878;50.778;0.258;2022-09-03T02:33:11;24.20;;;19.92;;
27422;SDS011;14878;50.778;0.258;2022-09-03T02:34:12;27.83;;;21.38;;
27422;SDS011;14878;50.778;0.258;2022-09-03T02:35:13;24.23;;;20.65;;
27422;SDS011;14878;50.778;0.258;2022-09-03T02:36:15;24.35;;;21.25;;
27422;SDS011;14878;50.778;0.258;2022-09-03T02:37:18;29.02;;;21.83;;
27422;SDS011;14878;50.778;0.258;2022-09-03T02:38:21;26.93;;;21.63;;
27422;SDS011;14878;50.778;0.258;2022-09-03T02:39:24;26.23;;;21.77;;
27422;SDS011;14878;50.778;0.258;2022-09-03T02:40:27;27.88;;;23.27;;
27422;SDS011;14878;50.778;0.258;2022-09-03T02:41:28;27.98;;;24.20;;
27422;SDS011;14878;50.778;0.258;2022-09-03T02:42:31;28.83;;;23.70;;
27422;SDS011;14878;50.778;0.258;2022-09-03T02:44:37;30.00;;;24.63;;
27422;SDS011;14878;50.778;0.258;2022-09-03T02:45:45;28.08;;;23.50;;
27422;SDS011;14878;50.778;0.258;2022-09-03T02:46:51;31.75;;;24.50;;
27422;SDS011;14878;50.778;0.258;2022-09-03T02:47:58;31.25;;;26.63;;
27422;SDS011;14878;50.778;0.258;2022-09-03T02:48:59;31.17;;;26.55;;
27422;SDS011;14878;50.778;0.258;2022-09-03T02:50:00;31.73;;;26.80;;
27422;SDS011;14878;50.778;0.258;2022-09-03T02:51:01;33.72;;;25.55;;
27422;SDS011;14878;50.778;0.258;2022-09-03T02:52:03;32.88;;;27.55;;
27422;SDS011;14878;50.778;0.258;2022-09-03T02:53:08;34.38;;;29.13;;
27422;SDS011;14878;50.778;0.258;2022-09-03T02:54:10;31.77;;;26.80;;
27422;SDS011;14878;50.778;0.258;2022-09-03T02:55:11;32.20;;;27.63;;
27422;SDS011;14878;50.778;0.258;2022-09-03T02:56:12;34.00;;;27.60;;
27422;SDS011;14878;50.778;0.258;2022-09-03T02:57:14;36.00;;;29.13;;
27422;SDS011;14878;50.778;0.258;2022-09-03T02:58:15;33.88;;;28.23;;
27422;SDS011;14878;50.778;0.258;2022-09-03T02:59:16;30.67;;;26.23;;
27422;SDS011;14878;50.778;0.258;2022-09-03T03:00:17;36.83;;;28.52;;
27422;SDS011;14878;50.778;0.258;2022-09-03T03:01:18;38.88;;;28.98;;
27422;SDS011;14878;50.778;0.258;2022-09-03T03:02:19;38.15;;;30.73;;
27422;SDS011;14878;50.778;0.258;2022-09-03T03:03:19;35.27;;;29.27;;
27422;SDS011;14878;50.778;0.258;2022-09-03T03:04:20;36.17;;;30.23;;
27422;SDS011;14878;50.778;0.258;2022-09-03T03:05:24;39.00;;;31.02;;
27422;SDS011;14878;50.778;0.258;2022-09-03T03:06:29;36.35;;;29.73;;
27422;SDS011;14878;50.778;0.258;2022-09-03T03:07:31;40.33;;;31.63;;
27422;SDS011;14878;50.778;0.258;2022-09-03T03:08:35;38.50;;;31.38;;
27422;SDS011;14878;50.778;0.258;2022-09-03T03:09:36;39.65;;;31.05;;
27422;SDS011;14878;50.778;0.258;2022-09-03T03:10:37;37.00;;;30.00;;
27422;SDS011;14878;50.778;0.258;2022-09-03T03:11:37;37.95;;;31.52;;
27422;SDS011;14878;50.778;0.258;2022-09-03T03:12:39;38.75;;;31.70;;
27422;SDS011;14878;50.778;0.258;2022-09-03T03:13:39;39.03;;;32.40;;
27422;SDS011;14878;50.778;0.258;2022-09-03T03:14:40;39.53;;;33.23;;
27422;SDS011;14878;50.778;0.258;2022-09-03T03:15:41;41.03;;;33.38;;
27422;SDS011;14878;50.778;0.258;2022-09-03T03:16:42;39.72;;;32.10;;
27422;SDS011;14878;50.778;0.258;2022-09-03T03:17:43;37.60;;;32.42;;
27422;SDS011;14878;50.778;0.258;2022-09-03T03:18:44;43.30;;;33.37;;
27422;SDS011;14878;50.778;0.258;2022-09-03T03:19:45;42.97;;;35.05;;
27422;SDS011;14878;50.778;0.258;2022-09-03T03:20:46;38.67;;;31.65;;
27422;SDS011;14878;50.778;0.258;2022-09-03T03:21:47;42.45;;;33.63;;
27422;SDS011;14878;50.778;0.258;2022-09-03T03:22:48;39.88;;;33.38;;
27422;SDS011;14878;50.778;0.258;2022-09-03T03:24:11;42.75;;;34.30;;
27422;SDS011;14878;50.778;0.258;2022-09-03T03:25:12;44.90;;;34.77;;
27422;SDS011;14878;50.778;0.258;2022-09-03T03:26:15;41.65;;;35.00;;
27422;SDS011;14878;50.778;0.258;2022-09-03T03:27:20;42.67;;;33.30;;
27422;SDS011;14878;50.778;0.258;2022-09-03T03:28:20;40.00;;;33.50;;
27422;SDS011;14878;50.778;0.258;2022-09-03T03:29:21;37.38;;;31.67;;
27422;SDS011;14878;50.778;0.258;2022-09-03T03:30:22;39.93;;;33.67;;
27422;SDS011;14878;50.778;0.258;2022-09-03T03:31:23;40.22;;;33.28;;
27422;SDS011;14878;50.778;0.258;2022-09-03T03:32:24;40.15;;;32.05;;
27422;SDS011;14878;50.778;0.258;2022-09-03T03:33:25;39.75;;;32.50;;
27422;SDS011;14878;50.778;0.258;2022-09-03T03:34:26;38.00;;;32.00;;
27422;SDS011;14878;50.778;0.258;2022-09-03T03:35:27;37.55;;;31.75;;
27422;SDS011;14878;50.778;0.258;2022-09-03T03:36:28;37.63;;;31.67;;
27422;SDS011;14878;50.778;0.258;2022-09-03T03:37:31;37.50;;;31.63;;
27422;SDS011;14878;50.778;0.258;2022-09-03T03:38:33;38.45;;;31.98;;
27422;SDS011;14878;50.778;0.258;2022-09-03T03:39:35;40.53;;;31.60;;
27422;SDS011;14878;50.778;0.258;2022-09-03T03:40:36;36.40;;;30.67;;
27422;SDS011;14878;50.778;0.258;2022-09-03T03:41:38;38.95;;;32.58;;
27422;SDS011;14878;50.778;0.258;2022-09-03T03:42:38;37.25;;;31.65;;
27422;SDS011;14878;50.778;0.258;2022-09-03T03:43:40;37.15;;;31.52;;
27422;SDS011;14878;50.778;0.258;2022-09-03T03:44:40;39.30;;;30.48;;
27422;SDS011;14878;50.778;0.258;2022-09-03T03:45:42;36.88;;;31.05;;
27422;SDS011;14878;50.778;0.258;2022-09-03T03:46:43;37.97;;;31.07;;
27422;SDS011;14878;50.778;0.258;2022-09-03T03:47:44;35.90;;;31.13;;
27422;SDS011;14878;50.778;0.258;2022-09-03T03:48:46;40.13;;;32.30;;
27422;SDS011;14878;50.778;0.258;2022-09-03T03:49:47;39.58;;;32.90;;
27422;SDS011;14878;50.778;0.258;2022-09-03T03:50:48;42.28;;;34.30;;
27422;SDS011;14878;50.778;0.258;2022-09-03T03:51:49;39.17;;;31.60;;
27422;SDS011;14878;50.778;0.258;2022-09-03T03:52:50;41.37;;;33.50;;
27422;SDS011;14878;50.778;0.258;2022-09-03T03:53:52;42.60;;;34.80;;
27422;SDS011;14878;50.778;0.258;2022-09-03T03:54:55;38.85;;;32.97;;
27422;SDS011;14878;50.778;0.258;2022-09-03T03:55:56;38.50;;;31.63;;
27422;SDS011;14878;50.778;0.258;2022-09-03T03:56:59;42.38;;;34.78;;
27422;SDS011;14878;50.778;0.258;2022-09-03T03:57:59;42.35;;;34.67;;
27422;SDS011;14878;50.778;0.258;2022-09-03T03:59:00;39.07;;;33.30;;
27422;SDS011;14878;50.778;0.258;2022-09-03T04:00:02;42.50;;;34.25;;
27422;SDS011;14878;50.778;0.258;2022-09-03T04:01:08;41.50;;;33.58;;
27422;SDS011;14878;50.778;0.258;2022-09-03T04:02:10;43.78;;;33.28;;
27422;SDS011;14878;50.778;0.258;2022-09-03T04:03:12;37.33;;;30.75;;
27422;SDS011;14878;50.778;0.258;2022-09-03T04:04:13;40.13;;;32.73;;
27422;SDS011;14878;50.778;0.258;2022-09-03T04:05:13;34.78;;;29.77;;
27422;SDS011;14878;50.778;0.258;2022-09-03T04:06:16;35.60;;;30.52;;
27422;SDS011;14878;50.778;0.258;2022-09-03T04:07:18;38.72;;;33.08;;
27422;SDS011;14878;50.778;0.258;2022-09-03T04:08:19;41.20;;;33.13;;
27422;SDS011;14878;50.778;0.258;2022-09-03T04:09:19;39.63;;;32.97;;
27422;SDS011;14878;50.778;0.258;2022-09-03T04:10:20;40.77;;;34.90;;
27422;SDS011;14878;50.778;0.258;2022-09-03T04:11:21;42.05;;;36.05;;
27422;SDS011;14878;50.778;0.258;2022-09-03T04:12:23;41.65;;;33.08;;
27422;SDS011;14878;50.778;0.258;2022-09-03T04:13:29;41.42;;;34.75;;
27422;SDS011;14878;50.778;0.258;2022-09-03T04:14:31;45.80;;;37.10;;
27422;SDS011;14878;50.778;0.258;2022-09-03T04:15:31;41.27;;;33.10;;
27422;SDS011;14878;50.778;0.258;2022-09-03T04:16:33;42.78;;;34.70;;
27422;SDS011;14878;50.778;0.258;2022-09-03T04:17:33;39.28;;;33.33;;
27422;SDS011;14878;50.778;0.258;2022-09-03T04:18:34;40.87;;;33.83;;
27422;SDS011;14878;50.778;0.258;2022-09-03T04:19:35;39.55;;;32.55;;
27422;SDS011;14878;50.778;0.258;2022-09-03T04:20:37;40.75;;;33.72;;
27422;SDS011;14878;50.778;0.258;2022-09-03T04:21:38;40.65;;;33.50;;
27422;SDS011;14878;50.778;0.258;2022-09-03T04:22:38;40.42;;;32.70;;
27422;SDS011;14878;50.778;0.258;2022-09-03T04:23:41;39.53;;;33.20;;
27422;SDS011;14878;50.778;0.258;2022-09-03T04:24:43;42.17;;;34.88;;
27422;SDS011;14878;50.778;0.258;2022-09-03T04:25:50;43.83;;;35.30;;
27422;SDS011;14878;50.778;0.258;2022-09-03T04:26:51;43.28;;;36.45;;
27422;SDS011;14878;50.778;0.258;2022-09-03T04:27:53;47.60;;;37.92;;
27422;SDS011;14878;50.778;0.258;2022-09-03T04:28:54;44.83;;;37.47;;
27422;SDS011;14878;50.778;0.258;2022-09-03T04:29:55;46.08;;;38.70;;
27422;SDS011;14878;50.778;0.258;2022-09-03T04:30:59;47.57;;;38.07;;
27422;SDS011;14878;50.778;0.258;2022-09-03T04:32:07;46.65;;;37.15;;
27422;SDS011;14878;50.778;0.258;2022-09-03T04:33:26;43.55;;;36.70;;
27422;SDS011;14878;50.778;0.258;2022-09-03T04:34:27;40.53;;;34.95;;
27422;SDS011;14878;50.778;0.258;2022-09-03T04:35:28;44.73;;;36.27;;
27422;SDS011;14878;50.778;0.258;2022-09-03T04:36:30;51.13;;;38.58;;
27422;SDS011;14878;50.778;0.258;2022-09-03T04:37:34;51.10;;;39.10;;
27422;SDS011;14878;50.778;0.258;2022-09-03T04:38:35;49.95;;;39.75;;
27422;SDS011;14878;50.778;0.258;2022-09-03T04:39:37;49.60;;;39.60;;
27422;SDS011;14878;50.778;0.258;2022-09-03T04:40:38;48.90;;;38.47;;
27422;SDS011;14878;50.778;0.258;2022-09-03T04:41:38;49.87;;;38.90;;
27422;SDS011;14878;50.778;0.258;2022-09-03T04:42:39;45.47;;;36.22;;
27422;SDS011;14878;50.778;0.258;2022-09-03T04:43:40;44.80;;;35.55;;
27422;SDS011;14878;50.778;0.258;2022-09-03T04:44:42;47.87;;;38.07;;
27422;SDS011;14878;50.778;0.258;2022-09-03T04:45:43;44.92;;;35.97;;
27422;SDS011;14878;50.778;0.258;2022-09-03T04:46:43;43.72;;;35.63;;
27422;SDS011;14878;50.778;0.258;2022-09-03T04:49:01;48.85;;;36.00;;
27422;SDS011;14878;50.778;0.258;2022-09-03T04:50:03;45.38;;;35.30;;
27422;SDS011;14878;50.778;0.258;2022-09-03T04:51:12;45.20;;;36.28;;
27422;SDS011;14878;50.778;0.258;2022-09-03T04:52:15;43.58;;;34.75;;
27422;SDS011;14878;50.778;0.258;2022-09-03T04:53:16;41.00;;;35.23;;
27422;SDS011;14878;50.778;0.258;2022-09-03T04:54:16;43.72;;;35.30;;
27422;SDS011;14878;50.778;0.258;2022-09-03T04:55:17;43.23;;;36.20;;
27422;SDS011;14878;50.778;0.258;2022-09-03T04:56:19;44.92;;;35.33;;
27422;SDS011;14878;50.778;0.258;2022-09-03T04:57:22;45.00;;;34.90;;
27422;SDS011;14878;50.778;0.258;2022-09-03T04:58:23;42.85;;;35.78;;
27422;SDS011;14878;50.778;0.258;2022-09-03T04:59:23;45.75;;;36.08;;
27422;SDS011;14878;50.778;0.258;2022-09-03T05:00:24;41.93;;;35.20;;
27422;SDS011;14878;50.778;0.258;2022-09-03T05:01:27;44.97;;;36.40;;
27422;SDS011;14878;50.778;0.258;2022-09-03T05:02:29;44.35;;;37.00;;
27422;SDS011;14878;50.778;0.258;2022-09-03T05:03:29;47.13;;;36.23;;
27422;SDS011;14878;50.778;0.258;2022-09-03T05:04:30;45.42;;;36.50;;
27422;SDS011;14878;50.778;0.258;2022-09-03T05:05:31;44.47;;;36.03;;
27422;SDS011;14878;50.778;0.258;2022-09-03T05:06:35;41.53;;;33.80;;
27422;SDS011;14878;50.778;0.258;2022-09-03T05:07:36;41.47;;;34.88;;
27422;SDS011;14878;50.778;0.258;2022-09-03T05:08:37;42.17;;;35.15;;
27422;SDS011;14878;50.778;0.258;2022-09-03T05:09:39;41.10;;;34.80;;
27422;SDS011;14878;50.778;0.258;2022-09-03T05:10:40;41.92;;;34.67;;
27422;SDS011;14878;50.778;0.258;2022-09-03T05:11:40;43.17;;;34.65;;
27422;SDS011;14878;50.778;0.258;2022-09-03T05:12:41;44.17;;;35.40;;
27422;SDS011;14878;50.778;0.258;2022-09-03T05:13:42;43.88;;;35.63;;
27422;SDS011;14878;50.778;0.258;2022-09-03T05:14:46;45.05;;;36.50;;
27422;SDS011;14878;50.778;0.258;2022-09-03T05:15:46;45.93;;;37.73;;
27422;SDS011;14878;50.778;0.258;2022-09-03T05:16:48;48.55;;;37.70;;
27422;SDS011;14878;50.778;0.258;2022-09-03T05:17:49;43.97;;;35.35;;
27422;SDS011;14878;50.778;0.258;2022-09-03T05:18:53;46.28;;;37.05;;
27422;SDS011;14878;50.778;0.258;2022-09-03T05:19:55;46.60;;;37.00;;
27422;SDS011;14878;50.778;0.258;2022-09-03T05:22:01;47.45;;;38.28;;
27422;SDS011;14878;50.778;0.258;2022-09-03T05:23:02;47.00;;;39.22;;
27422;SDS011;14878;50.778;0.258;2022-09-03T05:24:03;45.75;;;37.10;;
27422;SDS011;14878;50.778;0.258;2022-09-03T05:25:04;42.73;;;35.73;;
27422;SDS011;14878;50.778;0.258;2022-09-03T05:26:07;46.30;;;38.17;;
27422;SDS011;14878;50.778;0.258;2022-09-03T05:27:10;43.75;;;36.63;;
27422;SDS011;14878;50.778;0.258;2022-09-03T05:28:11;46.35;;;37.70;;
27422;SDS011;14878;50.778;0.258;2022-09-03T05:29:12;44.60;;;37.42;;
27422;SDS011;14878;50.778;0.258;2022-09-03T05:30:13;46.08;;;37.45;;
27422;SDS011;14878;50.778;0.258;2022-09-03T05:31:15;44.13;;;37.00;;
27422;SDS011;14878;50.778;0.258;2022-09-03T05:32:17;41.67;;;35.83;;
27422;SDS011;14878;50.778;0.258;2022-09-03T05:33:18;46.60;;;38.93;;
27422;SDS011;14878;50.778;0.258;2022-09-03T05:34:18;49.13;;;39.55;;
27422;SDS011;14878;50.778;0.258;2022-09-03T05:35:19;49.03;;;41.15;;
27422;SDS011;14878;50.778;0.258;2022-09-03T05:36:21;47.57;;;40.07;;
27422;SDS011;14878;50.778;0.258;2022-09-03T05:37:22;50.67;;;42.17;;
27422;SDS011;14878;50.778;0.258;2022-09-03T05:38:23;51.80;;;40.38;;
27422;SDS011;14878;50.778;0.258;2022-09-03T05:39:23;49.90;;;39.70;;
27422;SDS011;14878;50.778;0.258;2022-09-03T05:40:25;47.78;;;40.38;;
27422;SDS011;14878;50.778;0.258;2022-09-03T05:41:26;47.53;;;40.03;;
27422;SDS011;14878;50.778;0.258;2022-09-03T05:42:28;47.42;;;39.53;;
27422;SDS011;14878;50.778;0.258;2022-09-03T05:43:30;54.53;;;43.58;;
27422;SDS011;14878;50.778;0.258;2022-09-03T05:44:31;54.28;;;44.55;;
27422;SDS011;14878;50.778;0.258;2022-09-03T05:45:32;53.58;;;43.92;;
27422;SDS011;14878;50.778;0.258;2022-09-03T05:46:33;55.03;;;43.90;;
27422;SDS011;14878;50.778;0.258;2022-09-03T05:47:37;53.85;;;43.38;;
27422;SDS011;14878;50.778;0.258;2022-09-03T05:48:39;51.67;;;39.38;;
27422;SDS011;14878;50.778;0.258;2022-09-03T05:49:40;49.47;;;39.65;;
27422;SDS011;14878;50.778;0.258;2022-09-03T05:50:41;51.67;;;41.63;;
27422;SDS011;14878;50.778;0.258;2022-09-03T05:51:41;53.35;;;42.22;;
27422;SDS011;14878;50.778;0.258;2022-09-03T05:52:42;51.20;;;42.07;;
27422;SDS011;14878;50.778;0.258;2022-09-03T05:53:44;50.50;;;41.63;;
27422;SDS011;14878;50.778;0.258;2022-09-03T05:54:47;50.63;;;41.53;;
27422;SDS011;14878;50.778;0.258;2022-09-03T05:55:53;49.30;;;40.57;;
27422;SDS011;14878;50.778;0.258;2022-09-03T05:56:58;51.03;;;41.65;;
27422;SDS011;14878;50.778;0.258;2022-09-03T05:57:58;49.65;;;41.58;;
27422;SDS011;14878;50.778;0.258;2022-09-03T05:59:00;48.38;;;38.53;;
27422;SDS011;14878;50.778;0.258;2022-09-03T06:00:04;46.40;;;39.60;;
27422;SDS011;14878;50.778;0.258;2022-09-03T06:01:13;47.65;;;38.35;;
27422;SDS011;14878;50.778;0.258;2022-09-03T06:02:19;46.10;;;38.05;;
27422;SDS011;14878;50.778;0.258;2022-09-03T06:03:19;48.00;;;38.60;;
27422;SDS011;14878;50.778;0.258;2022-09-03T06:04:20;50.63;;;42.17;;
27422;SDS011;14878;50.778;0.258;2022-09-03T06:05:21;47.63;;;39.08;;
27422;SDS011;14878;50.778;0.258;2022-09-03T06:06:22;46.70;;;37.70;;
27422;SDS011;14878;50.778;0.258;2022-09-03T06:07:26;44.15;;;37.08;;
27422;SDS011;14878;50.778;0.258;2022-09-03T06:08:27;45.90;;;38.85;;
27422;SDS011;14878;50.778;0.258;2022-09-03T06:09:28;43.93;;;38.00;;
27422;SDS011;14878;50.778;0.258;2022-09-03T06:10:28;45.33;;;38.03;;
27422;SDS011;14878;50.778;0.258;2022-09-03T06:11:30;43.75;;;37.97;;
27422;SDS011;14878;50.778;0.258;2022-09-03T06:12:32;43.25;;;37.47;;
27422;SDS011;14878;50.778;0.258;2022-09-03T06:13:33;45.28;;;37.40;;
27422;SDS011;14878;50.778;0.258;2022-09-03T06:14:34;49.20;;;36.50;;
27422;SDS011;14878;50.778;0.258;2022-09-03T06:15:35;44.50;;;36.90;;
27422;SDS011;14878;50.778;0.258;2022-09-03T06:16:36;41.95;;;36.13;;
27422;SDS011;14878;50.778;0.258;2022-09-03T06:17:39;43.72;;;35.85;;
27422;SDS011;14878;50.778;0.258;2022-09-03T06:18:39;47.83;;;38.33;;
27422;SDS011;14878;50.778;0.258;2022-09-03T06:19:40;43.65;;;37.80;;
27422;SDS011;14878;50.778;0.258;2022-09-03T06:20:41;47.70;;;38.35;;
27422;SDS011;14878;50.778;0.258;2022-09-03T06:21:42;44.83;;;37.63;;
27422;SDS011;14878;50.778;0.258;2022-09-03T06:22:48;45.70;;;37.80;;
27422;SDS011;14878;50.778;0.258;2022-09-03T06:23:52;43.90;;;36.75;;
27422;SDS011;14878;50.778;0.258;2022-09-03T06:24:58;44.25;;;38.30;;
27422;SDS011;14878;50.778;0.258;2022-09-03T06:27:09;50.90;;;42.60;;
27422;SDS011;14878;50.778;0.258;2022-09-03T06:28:10;49.72;;;40.50;;
27422;SDS011;14878;50.778;0.258;2022-09-03T06:29:11;50.83;;;40.65;;
27422;SDS011;14878;50.778;0.258;2022-09-03T06:30:12;44.05;;;38.28;;
27422;SDS011;14878;50.778;0.258;2022-09-03T06:31:15;44.72;;;36.97;;
27422;SDS011;14878;50.778;0.258;2022-09-03T06:32:18;44.10;;;37.80;;
27422;SDS011;14878;50.778;0.258;2022-09-03T06:33:19;45.73;;;39.20;;
27422;SDS011;14878;50.778;0.258;2022-09-03T06:34:19;46.75;;;39.08;;
27422;SDS011;14878;50.778;0.258;2022-09-03T06:35:21;43.75;;;37.75;;
27422;SDS011;14878;50.778;0.258;2022-09-03T06:36:23;43.30;;;36.33;;
27422;SDS011;14878;50.778;0.258;2022-09-03T06:37:25;46.97;;;38.70;;
27422;SDS011;14878;50.778;0.258;2022-09-03T06:38:27;42.97;;;38.03;;
27422;SDS011;14878;50.778;0.258;2022-09-03T06:39:31;42.75;;;37.88;;
27422;SDS011;14878;50.778;0.258;2022-09-03T06:40:31;48.65;;;40.90;;
27422;SDS011;14878;50.778;0.258;2022-09-03T06:41:32;45.60;;;40.00;;
27422;SDS011;14878;50.778;0.258;2022-09-03T06:42:34;42.83;;;37.35;;
27422;SDS011;14878;50.778;0.258;2022-09-03T06:43:36;50.72;;;42.90;;
27422;SDS011;14878;50.778;0.258;2022-09-03T06:44:38;49.72;;;42.22;;
27422;SDS011;14878;50.778;0.258;2022-09-03T06:45:39;53.43;;;46.17;;
27422;SDS011;14878;50.778;0.258;2022-09-03T06:46:40;55.05;;;46.05;;
27422;SDS011;14878;50.778;0.258;2022-09-03T06:47:41;59.00;;;48.42;;
27422;SDS011;14878;50.778;0.258;2022-09-03T06:48:42;55.00;;;46.03;;
27422;SDS011;14878;50.778;0.258;2022-09-03T06:49:43;53.42;;;46.00;;
27422;SDS011;14878;50.778;0.258;2022-09-03T06:50:51;51.83;;;43.28;;
27422;SDS011;14878;50.778;0.258;2022-09-03T06:52:00;52.20;;;45.15;;
27422;SDS011;14878;50.778;0.258;2022-09-03T06:53:01;51.85;;;43.55;;
27422;SDS011;14878;50.778;0.258;2022-09-03T06:54:11;49.50;;;42.47;;
27422;SDS011;14878;50.778;0.258;2022-09-03T06:55:12;50.30;;;42.85;;
27422;SDS011;14878;50.778;0.258;2022-09-03T06:56:14;48.00;;;42.65;;
27422;SDS011;14878;50.778;0.258;2022-09-03T06:57:16;52.85;;;44.53;;
27422;SDS011;14878;50.778;0.258;2022-09-03T06:58:17;50.77;;;43.47;;
27422;SDS011;14878;50.778;0.258;2022-09-03T06:59:18;49.20;;;42.55;;
27422;SDS011;14878;50.778;0.258;2022-09-03T07:00:18;47.25;;;41.80;;
27422;SDS011;14878;50.778;0.258;2022-09-03T07:01:21;51.42;;;41.72;;
27422;SDS011;14878;50.778;0.258;2022-09-03T07:02:32;47.95;;;39.13;;
27422;SDS011;14878;50.778;0.258;2022-09-03T07:03:33;42.33;;;37.65;;
27422;SDS011;14878;50.778;0.258;2022-09-03T07:04:35;43.58;;;38.80;;
27422;SDS011;14878;50.778;0.258;2022-09-03T07:05:36;44.20;;;38.83;;
27422;SDS011;14878;50.778;0.258;2022-09-03T07:06:37;49.65;;;41.58;;